createdAt,value
2018-04-11T00:00:07.452Z,0.00
2018-04-11T00:01:07.373Z,0.00
2018-04-11T00:02:07.296Z,0.00
2018-04-11T00:03:07.220Z,0.00
2018-04-11T00:04:07.144Z,0.00
2018-04-11T00:05:07.065Z,0.00
2018-04-11T00:06:06.990Z,0.00
2018-04-11T00:07:06.912Z,0.00
2018-04-11T00:08:06.837Z,0.00
2018-04-11T00:09:06.756Z,0.00
2018-04-11T00:10:06.681Z,0.00
2018-04-11T00:11:06.605Z,0.00
2018-04-11T00:12:06.529Z,0.00
2018-04-11T00:13:06.451Z,0.00
2018-04-11T00:14:06.376Z,0.00
2018-04-11T00:15:06.300Z,0.00
2018-04-11T00:16:06.229Z,0.00
2018-04-11T00:17:06.145Z,0.00
2018-04-11T00:18:06.069Z,0.00
2018-04-11T00:19:05.992Z,0.00
2018-04-11T00:20:05.919Z,0.00
2018-04-11T00:21:05.840Z,0.00
2018-04-11T00:22:05.763Z,0.00
2018-04-11T00:23:05.686Z,0.00
2018-04-11T00:24:05.612Z,0.00
2018-04-11T00:25:05.530Z,0.00
2018-04-11T00:26:05.459Z,0.00
2018-04-11T00:27:05.379Z,0.00
2018-04-11T00:28:05.302Z,0.00
2018-04-11T00:29:05.224Z,0.00
2018-04-11T00:30:05.149Z,0.00
2018-04-11T00:31:05.067Z,0.00
2018-04-11T00:32:04.991Z,0.00
2018-04-11T00:33:04.913Z,0.00
2018-04-11T00:34:04.836Z,0.00
2018-04-11T00:35:04.758Z,0.00
2018-04-11T00:36:04.679Z,0.00
2018-04-11T00:37:04.606Z,0.00
2018-04-11T00:38:04.527Z,0.00
2018-04-11T00:39:04.447Z,0.00
2018-04-11T00:40:04.375Z,0.00
2018-04-11T00:41:04.294Z,0.00
2018-04-11T00:42:04.220Z,0.00
2018-04-11T00:43:04.145Z,0.00
2018-04-11T00:44:04.065Z,0.00
2018-04-11T00:45:03.985Z,0.00
2018-04-11T00:46:03.908Z,0.00
2018-04-11T00:47:03.835Z,0.00
2018-04-11T00:48:03.757Z,0.00
2018-04-11T00:49:03.681Z,0.00
2018-04-11T00:50:03.603Z,0.00
2018-04-11T00:51:03.524Z,0.00
2018-04-11T00:52:03.448Z,0.00
2018-04-11T00:53:03.372Z,0.00
2018-04-11T00:54:03.297Z,0.00
2018-04-11T00:55:03.223Z,0.00
2018-04-11T00:56:03.140Z,0.00
2018-04-11T00:57:03.064Z,0.00
2018-04-11T00:58:02.985Z,0.00
2018-04-11T00:59:02.909Z,0.00
2018-04-11T01:00:02.832Z,0.00
2018-04-11T01:01:02.754Z,0.00
2018-04-11T01:02:02.678Z,0.00
2018-04-11T01:03:02.599Z,0.00
2018-04-11T01:04:02.525Z,0.00
2018-04-11T01:05:02.447Z,0.00
2018-04-11T01:06:02.372Z,0.00
2018-04-11T01:07:02.290Z,0.00
2018-04-11T01:08:02.214Z,0.00
2018-04-11T01:09:02.136Z,0.00
2018-04-11T01:10:02.063Z,0.00
2018-04-11T01:11:01.989Z,0.00
2018-04-11T01:12:01.905Z,0.00
2018-04-11T01:13:01.831Z,0.00
2018-04-11T01:14:01.756Z,0.00
2018-04-11T01:15:01.677Z,0.00
2018-04-11T01:16:01.601Z,0.00
2018-04-11T01:17:01.521Z,0.00
2018-04-11T01:18:01.444Z,0.00
2018-04-11T01:19:01.370Z,0.00
2018-04-11T01:20:01.290Z,0.00
2018-04-11T01:21:01.216Z,0.00
2018-04-11T01:22:01.136Z,0.00
2018-04-11T01:23:01.059Z,0.00
2018-04-11T01:24:00.982Z,0.00
2018-04-11T01:25:00.904Z,0.00
2018-04-11T01:26:00.831Z,0.00
2018-04-11T01:27:00.750Z,0.00
2018-04-11T01:28:00.675Z,0.00
2018-04-11T01:29:00.601Z,0.00
2018-04-11T01:30:00.519Z,0.00
2018-04-11T01:31:00.445Z,0.00
2018-04-11T01:32:00.368Z,0.00
2018-04-11T01:33:00.288Z,0.00
2018-04-11T01:34:00.212Z,0.00
2018-04-11T01:35:00.132Z,0.00
2018-04-11T01:36:00.058Z,0.00
2018-04-11T01:36:59.980Z,0.00
2018-04-11T01:37:59.908Z,0.00
2018-04-11T01:38:59.826Z,0.00
2018-04-11T01:39:59.751Z,0.00
2018-04-11T01:40:59.674Z,0.00
2018-04-11T01:41:59.595Z,0.00
2018-04-11T01:42:59.518Z,0.00
2018-04-11T01:43:59.441Z,0.00
2018-04-11T01:44:59.364Z,0.00
2018-04-11T01:45:59.288Z,0.00
2018-04-11T01:46:59.212Z,0.00
2018-04-11T01:47:59.133Z,0.00
2018-04-11T01:48:59.059Z,0.00
2018-04-11T01:49:58.981Z,0.00
2018-04-11T01:50:58.902Z,0.00
2018-04-11T01:51:58.832Z,0.00
2018-04-11T01:52:58.750Z,0.00
2018-04-11T01:53:58.672Z,0.00
2018-04-11T01:54:58.596Z,0.00
2018-04-11T01:55:58.519Z,0.00
2018-04-11T01:56:58.442Z,0.00
2018-04-11T01:57:58.366Z,0.00
2018-04-11T01:58:58.289Z,0.00
2018-04-11T01:59:58.216Z,0.00
2018-04-11T02:00:58.135Z,0.00
2018-04-11T02:01:58.058Z,0.00
2018-04-11T02:02:57.989Z,0.00
2018-04-11T02:03:57.905Z,0.00
2018-04-11T02:04:57.829Z,0.00
2018-04-11T02:05:57.752Z,0.00
2018-04-11T02:06:57.679Z,0.00
2018-04-11T02:07:57.600Z,0.00
2018-04-11T02:08:57.521Z,0.00
2018-04-11T02:09:57.444Z,0.00
2018-04-11T02:10:57.367Z,0.00
2018-04-11T02:11:57.292Z,0.00
2018-04-11T02:12:57.214Z,0.00
2018-04-11T02:13:57.138Z,0.00
2018-04-11T02:14:57.063Z,0.00
2018-04-11T02:15:56.983Z,0.00
2018-04-11T02:16:56.906Z,0.00
2018-04-11T02:17:56.829Z,0.00
2018-04-11T02:18:56.768Z,0.00
2018-04-11T02:19:56.717Z,0.00
2018-04-11T02:20:56.600Z,0.00
2018-04-11T02:21:56.520Z,0.00
2018-04-11T02:22:56.448Z,0.00
2018-04-11T02:23:56.371Z,0.00
2018-04-11T02:24:56.292Z,0.00
2018-04-11T02:25:56.214Z,0.00
2018-04-11T02:26:56.139Z,0.00
2018-04-11T02:27:56.061Z,0.00
2018-04-11T02:28:55.985Z,0.00
2018-04-11T02:29:55.911Z,0.00
2018-04-11T02:30:55.832Z,0.00
2018-04-11T02:31:55.761Z,0.00
2018-04-11T02:32:55.678Z,0.00
2018-04-11T02:33:55.603Z,0.00
2018-04-11T02:34:55.527Z,0.00
2018-04-11T02:35:55.449Z,0.00
2018-04-11T02:36:55.372Z,0.00
2018-04-11T02:37:55.295Z,0.00
2018-04-11T02:38:55.219Z,0.00
2018-04-11T02:39:55.146Z,0.00
2018-04-11T02:40:55.065Z,0.00
2018-04-11T02:41:54.989Z,0.00
2018-04-11T02:42:54.913Z,0.00
2018-04-11T02:43:54.837Z,0.00
2018-04-11T02:44:54.772Z,0.00
2018-04-11T02:45:54.682Z,0.00
2018-04-11T02:46:54.606Z,0.00
2018-04-11T02:47:54.527Z,0.00
2018-04-11T02:48:54.453Z,0.00
2018-04-11T02:49:54.375Z,0.00
2018-04-11T02:50:54.297Z,0.00
2018-04-11T02:51:54.224Z,0.00
2018-04-11T02:52:54.143Z,0.00
2018-04-11T02:53:54.067Z,0.00
2018-04-11T02:54:53.991Z,0.00
2018-04-11T02:55:53.912Z,0.00
2018-04-11T02:56:53.836Z,0.00
2018-04-11T02:57:53.761Z,0.00
2018-04-11T02:58:53.685Z,0.00
2018-04-11T02:59:53.607Z,0.00
2018-04-11T03:00:53.529Z,0.00
2018-04-11T03:01:53.450Z,0.00
2018-04-11T03:02:53.379Z,0.00
2018-04-11T03:03:53.309Z,0.00
2018-04-11T03:04:53.227Z,0.00
2018-04-11T03:05:53.140Z,0.00
2018-04-11T03:06:53.072Z,0.00
2018-04-11T03:07:53.004Z,0.00
2018-04-11T03:08:52.916Z,0.00
2018-04-11T03:09:52.840Z,0.00
2018-04-11T03:10:52.769Z,0.00
2018-04-11T03:11:52.687Z,0.00
2018-04-11T03:12:52.613Z,0.00
2018-04-11T03:13:52.533Z,0.00
2018-04-11T03:14:52.457Z,0.00
2018-04-11T03:15:52.382Z,0.00
2018-04-11T03:16:52.303Z,0.00
2018-04-11T03:17:52.226Z,0.00
2018-04-11T03:18:52.150Z,0.00
2018-04-11T03:19:52.072Z,0.00
2018-04-11T03:20:51.996Z,0.00
2018-04-11T03:21:51.940Z,0.00
2018-04-11T03:22:51.847Z,0.00
2018-04-11T03:23:51.770Z,0.00
2018-04-11T03:24:51.687Z,0.00
2018-04-11T03:25:51.615Z,0.00
2018-04-11T03:26:51.537Z,0.00
2018-04-11T03:27:51.459Z,0.00
2018-04-11T03:28:51.381Z,0.00
2018-04-11T03:29:51.310Z,0.00
2018-04-11T03:30:51.229Z,0.00
2018-04-11T03:31:51.152Z,0.00
2018-04-11T03:32:51.074Z,0.00
2018-04-11T03:33:50.999Z,0.00
2018-04-11T03:34:50.921Z,0.00
2018-04-11T03:35:50.846Z,0.00
2018-04-11T03:36:50.771Z,0.00
2018-04-11T03:37:50.693Z,0.00
2018-04-11T03:38:50.614Z,0.00
2018-04-11T03:39:50.545Z,0.00
2018-04-11T03:40:50.461Z,0.00
2018-04-11T03:41:50.387Z,0.00
2018-04-11T03:42:50.308Z,0.00
2018-04-11T03:43:50.232Z,0.00
2018-04-11T03:44:50.154Z,0.00
2018-04-11T03:45:50.082Z,0.00
2018-04-11T03:46:50.004Z,0.00
2018-04-11T03:47:49.925Z,0.00
2018-04-11T03:48:49.848Z,0.00
2018-04-11T03:49:49.780Z,0.00
2018-04-11T03:50:49.696Z,0.00
2018-04-11T03:51:49.623Z,0.00
2018-04-11T03:52:49.541Z,0.00
2018-04-11T03:53:49.466Z,0.00
2018-04-11T03:54:49.391Z,0.00
2018-04-11T03:55:49.314Z,0.00
2018-04-11T03:56:49.234Z,0.00
2018-04-11T03:57:49.156Z,0.00
2018-04-11T03:58:49.081Z,0.00
2018-04-11T03:59:49.001Z,0.00
2018-04-11T04:00:48.928Z,0.00
2018-04-11T04:01:48.855Z,0.00
2018-04-11T04:02:48.773Z,0.00
2018-04-11T04:03:48.696Z,0.00
2018-04-11T04:04:48.618Z,0.00
2018-04-11T04:05:48.544Z,0.00
2018-04-11T04:06:48.465Z,0.00
2018-04-11T04:07:48.403Z,0.00
2018-04-11T04:08:48.313Z,0.00
2018-04-11T04:09:48.245Z,0.00
2018-04-11T04:10:48.162Z,0.00
2018-04-11T04:11:48.082Z,0.00
2018-04-11T04:12:48.007Z,0.00
2018-04-11T04:13:47.956Z,0.00
2018-04-11T04:14:47.851Z,0.00
2018-04-11T04:15:47.782Z,0.00
2018-04-11T04:16:47.700Z,0.00
2018-04-11T04:17:47.622Z,0.00
2018-04-11T04:18:47.545Z,0.00
2018-04-11T04:19:47.524Z,0.00
2018-04-11T04:20:47.423Z,0.00
2018-04-11T04:21:47.316Z,0.00
2018-04-11T04:22:47.238Z,0.00
2018-04-11T04:23:47.163Z,0.00
2018-04-11T04:24:47.085Z,0.00
2018-04-11T04:25:47.010Z,0.00
2018-04-11T04:26:46.931Z,0.00
2018-04-11T04:27:46.855Z,0.00
2018-04-11T04:28:46.784Z,0.00
2018-04-11T04:29:46.702Z,0.00
2018-04-11T04:30:46.626Z,0.00
2018-04-11T04:31:46.549Z,0.00
2018-04-11T04:32:46.471Z,0.00
2018-04-11T04:33:46.396Z,0.00
2018-04-11T04:34:46.318Z,0.00
2018-04-11T04:35:46.242Z,0.00
2018-04-11T04:36:46.163Z,0.00
2018-04-11T04:37:46.088Z,0.00
2018-04-11T04:38:46.017Z,0.00
2018-04-11T04:39:45.935Z,0.00
2018-04-11T04:40:45.855Z,0.00
2018-04-11T04:41:45.784Z,0.00
2018-04-11T04:42:45.703Z,0.00
2018-04-11T04:43:45.627Z,0.00
2018-04-11T04:44:45.553Z,0.00
2018-04-11T04:45:45.473Z,0.00
2018-04-11T04:46:45.402Z,0.00
2018-04-11T04:47:45.324Z,0.00
2018-04-11T04:48:45.252Z,0.00
2018-04-11T04:49:45.166Z,0.00
2018-04-11T04:50:45.093Z,0.00
2018-04-11T04:51:45.018Z,0.00
2018-04-11T04:52:44.940Z,0.00
2018-04-11T04:53:44.861Z,0.00
2018-04-11T04:54:44.787Z,0.00
2018-04-11T04:55:44.710Z,0.00
2018-04-11T04:56:44.637Z,0.00
2018-04-11T04:57:44.558Z,0.00
2018-04-11T04:58:44.477Z,0.00
2018-04-11T04:59:44.400Z,0.00
2018-04-11T05:00:44.326Z,0.00
2018-04-11T05:01:44.292Z,0.00
2018-04-11T05:02:44.170Z,0.00
2018-04-11T05:03:44.093Z,0.00
2018-04-11T05:04:44.018Z,0.00
2018-04-11T05:05:43.940Z,0.00
2018-04-11T05:06:43.863Z,0.00
2018-04-11T05:07:43.786Z,0.00
2018-04-11T05:08:43.708Z,0.00
2018-04-11T05:09:43.633Z,0.00
2018-04-11T05:10:43.558Z,0.00
2018-04-11T05:11:43.477Z,0.00
2018-04-11T05:12:43.403Z,0.00
2018-04-11T05:13:43.325Z,0.00
2018-04-11T05:14:43.248Z,0.00
2018-04-11T05:15:43.175Z,0.00
2018-04-11T05:16:43.095Z,0.00
2018-04-11T05:17:43.020Z,0.00
2018-04-11T05:18:42.951Z,0.00
2018-04-11T05:19:42.868Z,0.00
2018-04-11T05:20:42.787Z,0.00
2018-04-11T05:21:42.716Z,0.00
2018-04-11T05:22:42.638Z,5.63
2018-04-11T05:23:42.560Z,5.63
2018-04-11T05:24:42.482Z,5.63
2018-04-11T05:25:42.402Z,5.63
2018-04-11T05:26:42.326Z,5.63
2018-04-11T05:27:42.249Z,5.63
2018-04-11T05:28:42.172Z,5.63
2018-04-11T05:29:42.097Z,5.63
2018-04-11T05:30:42.018Z,5.63
2018-04-11T05:31:41.943Z,5.63
2018-04-11T05:32:41.912Z,5.63
2018-04-11T05:33:41.787Z,5.63
2018-04-11T05:34:41.711Z,5.63
2018-04-11T05:35:41.632Z,5.63
2018-04-11T05:36:41.556Z,11.25
2018-04-11T05:37:41.480Z,11.25
2018-04-11T05:38:41.407Z,16.88
2018-04-11T05:39:41.326Z,16.88
2018-04-11T05:40:41.251Z,16.88
2018-04-11T05:41:41.170Z,22.50
2018-04-11T05:42:41.093Z,22.50
2018-04-11T05:43:41.019Z,28.13
2018-04-11T05:44:40.938Z,28.13
2018-04-11T05:45:40.862Z,33.75
2018-04-11T05:46:40.787Z,33.75
2018-04-11T05:47:40.712Z,33.75
2018-04-11T05:48:40.631Z,33.75
2018-04-11T05:49:40.554Z,33.75
2018-04-11T05:50:40.480Z,33.75
2018-04-11T05:51:40.404Z,28.13
2018-04-11T05:52:40.322Z,28.13
2018-04-11T05:53:40.249Z,28.13
2018-04-11T05:54:40.170Z,28.13
2018-04-11T05:55:40.096Z,28.13
2018-04-11T05:56:40.015Z,33.75
2018-04-11T05:57:39.937Z,33.75
2018-04-11T05:58:39.862Z,33.75
2018-04-11T05:59:39.798Z,28.13
2018-04-11T06:00:39.712Z,28.13
2018-04-11T06:01:39.632Z,22.50
2018-04-11T06:02:39.557Z,22.50
2018-04-11T06:03:39.477Z,22.50
2018-04-11T06:04:39.398Z,22.50
2018-04-11T06:05:39.322Z,22.50
2018-04-11T06:06:39.245Z,22.50
2018-04-11T06:07:39.169Z,28.13
2018-04-11T06:08:39.091Z,28.13
2018-04-11T06:09:39.011Z,28.13
2018-04-11T06:10:38.938Z,28.13
2018-04-11T06:11:38.860Z,28.13
2018-04-11T06:12:38.783Z,33.75
2018-04-11T06:13:38.708Z,33.75
2018-04-11T06:14:38.627Z,33.75
2018-04-11T06:15:38.554Z,33.75
2018-04-11T06:16:38.475Z,28.13
2018-04-11T06:17:38.399Z,28.13
2018-04-11T06:18:38.323Z,28.13
2018-04-11T06:19:38.244Z,22.50
2018-04-11T06:20:38.168Z,22.50
2018-04-11T06:21:38.095Z,22.50
2018-04-11T06:22:38.014Z,16.88
2018-04-11T06:23:37.936Z,16.88
2018-04-11T06:24:37.860Z,16.88
2018-04-11T06:25:37.783Z,16.88
2018-04-11T06:26:37.703Z,16.88
2018-04-11T06:27:37.632Z,11.25
2018-04-11T06:28:37.557Z,11.25
2018-04-11T06:29:37.477Z,11.25
2018-04-11T06:30:37.397Z,11.25
2018-04-11T06:31:37.323Z,11.25
2018-04-11T06:32:37.248Z,5.63
2018-04-11T06:33:37.172Z,5.63
2018-04-11T06:34:37.093Z,5.63
2018-04-11T06:35:37.016Z,5.63
2018-04-11T06:36:36.939Z,5.63
2018-04-11T06:37:36.875Z,5.63
2018-04-11T06:38:36.793Z,5.63
2018-04-11T06:39:36.708Z,5.63
2018-04-11T06:40:36.631Z,5.63
2018-04-11T06:41:36.554Z,5.63
2018-04-11T06:42:36.479Z,5.63
2018-04-11T06:43:36.400Z,5.63
2018-04-11T06:44:36.322Z,5.63
2018-04-11T06:45:36.249Z,5.63
2018-04-11T06:46:36.171Z,5.63
2018-04-11T06:47:36.092Z,5.63
2018-04-11T06:48:36.016Z,5.63
2018-04-11T06:49:35.938Z,11.25
2018-04-11T06:50:35.861Z,11.25
2018-04-11T06:51:35.786Z,11.25
2018-04-11T06:52:35.708Z,11.25
2018-04-11T06:53:35.630Z,11.25
2018-04-11T06:54:35.554Z,16.88
2018-04-11T06:55:35.478Z,16.88
2018-04-11T06:56:35.402Z,22.50
2018-04-11T06:57:35.324Z,22.50
2018-04-11T06:58:35.250Z,16.88
2018-04-11T06:59:35.170Z,16.88
2018-04-11T07:00:35.091Z,16.88
2018-04-11T07:01:35.015Z,16.88
2018-04-11T07:02:34.940Z,16.88
2018-04-11T07:03:34.866Z,16.88
2018-04-11T07:04:34.783Z,16.88
2018-04-11T07:05:34.768Z,22.50
2018-04-11T07:06:34.631Z,22.50
2018-04-11T07:07:34.557Z,28.13
2018-04-11T07:08:34.481Z,33.75
2018-04-11T07:09:34.419Z,39.38
2018-04-11T07:10:34.323Z,45.00
2018-04-11T07:11:34.252Z,45.00
2018-04-11T07:12:34.178Z,45.00
2018-04-11T07:13:34.104Z,45.00
2018-04-11T07:14:34.016Z,45.00
2018-04-11T07:15:33.945Z,39.38
2018-04-11T07:16:33.863Z,39.38
2018-04-11T07:17:33.804Z,33.75
2018-04-11T07:18:33.711Z,33.75
2018-04-11T07:19:33.636Z,33.75
2018-04-11T07:20:33.556Z,28.13
2018-04-11T07:21:33.478Z,28.13
2018-04-11T07:22:33.401Z,28.13
2018-04-11T07:23:33.325Z,28.13
2018-04-11T07:24:33.255Z,28.13
2018-04-11T07:25:33.174Z,28.13
2018-04-11T07:26:33.096Z,28.13
2018-04-11T07:27:33.019Z,28.13
2018-04-11T07:28:32.941Z,33.75
2018-04-11T07:29:32.863Z,39.38
2018-04-11T07:30:32.787Z,39.38
2018-04-11T07:31:32.706Z,39.38
2018-04-11T07:32:32.633Z,39.38
2018-04-11T07:33:32.556Z,45.00
2018-04-11T07:34:32.483Z,45.00
2018-04-11T07:35:32.402Z,45.00
2018-04-11T07:36:32.327Z,50.63
2018-04-11T07:37:32.249Z,50.63
2018-04-11T07:38:32.177Z,50.63
2018-04-11T07:39:32.100Z,50.63
2018-04-11T07:40:32.018Z,50.63
2018-04-11T07:41:31.940Z,45.00
2018-04-11T07:42:31.868Z,45.00
2018-04-11T07:43:31.792Z,45.00
2018-04-11T07:44:31.712Z,39.38
2018-04-11T07:45:31.636Z,33.75
2018-04-11T07:46:31.559Z,33.75
2018-04-11T07:47:31.482Z,33.75
2018-04-11T07:48:31.411Z,33.75
2018-04-11T07:49:31.331Z,33.75
2018-04-11T07:50:31.249Z,33.75
2018-04-11T07:51:31.176Z,33.75
2018-04-11T07:52:31.098Z,39.38
2018-04-11T07:53:31.023Z,39.38
2018-04-11T07:54:30.971Z,45.00
2018-04-11T07:55:30.892Z,45.00
2018-04-11T07:56:30.805Z,45.00
2018-04-11T07:57:30.718Z,45.00
2018-04-11T07:58:30.647Z,50.63
2018-04-11T07:59:30.560Z,56.25
2018-04-11T08:00:30.484Z,56.25
2018-04-11T08:01:30.403Z,61.88
2018-04-11T08:02:30.331Z,61.88
2018-04-11T08:03:30.382Z,61.88
2018-04-11T08:04:30.174Z,61.88
2018-04-11T08:05:30.102Z,61.88
2018-04-11T08:06:30.031Z,61.88
2018-04-11T08:07:29.950Z,61.88
2018-04-11T08:08:29.875Z,67.50
2018-04-11T08:09:29.795Z,73.13
2018-04-11T08:10:29.717Z,73.13
2018-04-11T08:11:29.644Z,78.75
2018-04-11T08:12:29.563Z,84.38
2018-04-11T08:13:29.487Z,84.38
2018-04-11T08:14:29.412Z,84.38
2018-04-11T08:15:29.343Z,78.75
2018-04-11T08:16:29.258Z,84.38
2018-04-11T08:17:29.180Z,84.38
2018-04-11T08:18:29.108Z,84.38
2018-04-11T08:19:29.029Z,78.75
2018-04-11T08:20:28.952Z,73.13
2018-04-11T08:21:28.876Z,67.50
2018-04-11T08:22:28.803Z,67.50
2018-04-11T08:23:28.722Z,67.50
2018-04-11T08:24:28.644Z,73.13
2018-04-11T08:25:28.570Z,78.75
2018-04-11T08:26:28.493Z,78.75
2018-04-11T08:27:28.419Z,84.38
2018-04-11T08:28:28.340Z,90.00
2018-04-11T08:29:28.263Z,95.63
2018-04-11T08:30:28.185Z,106.88
2018-04-11T08:31:28.116Z,123.75
2018-04-11T08:32:28.033Z,135.00
2018-04-11T08:33:27.959Z,146.25
2018-04-11T08:34:27.881Z,151.88
2018-04-11T08:35:27.804Z,146.25
2018-04-11T08:36:27.757Z,140.63
2018-04-11T08:37:27.650Z,135.00
2018-04-11T08:38:27.575Z,140.63
2018-04-11T08:39:27.492Z,146.25
2018-04-11T08:40:27.421Z,151.88
2018-04-11T08:41:27.345Z,157.50
2018-04-11T08:42:27.266Z,168.75
2018-04-11T08:43:27.192Z,185.63
2018-04-11T08:44:27.114Z,191.25
2018-04-11T08:45:27.045Z,196.88
2018-04-11T08:46:26.963Z,191.25
2018-04-11T08:47:26.905Z,185.63
2018-04-11T08:48:26.807Z,174.38
2018-04-11T08:49:26.732Z,180.00
2018-04-11T08:50:26.656Z,185.63
2018-04-11T08:51:26.580Z,174.38
2018-04-11T08:52:26.503Z,174.38
2018-04-11T08:53:26.427Z,168.75
2018-04-11T08:54:26.350Z,180.00
2018-04-11T08:55:26.275Z,174.38
2018-04-11T08:56:26.209Z,180.00
2018-04-11T08:57:26.129Z,157.50
2018-04-11T08:58:26.054Z,163.13
2018-04-11T08:59:25.969Z,151.88
2018-04-11T09:00:25.894Z,180.00
2018-04-11T09:01:25.820Z,180.00
2018-04-11T09:02:25.746Z,163.13
2018-04-11T09:03:25.664Z,168.75
2018-04-11T09:04:25.590Z,202.50
2018-04-11T09:05:25.519Z,202.50
2018-04-11T09:06:25.440Z,196.88
2018-04-11T09:07:25.360Z,208.13
2018-04-11T09:08:25.278Z,202.50
2018-04-11T09:09:25.206Z,196.88
2018-04-11T09:10:25.131Z,191.25
2018-04-11T09:11:25.054Z,219.38
2018-04-11T09:12:24.979Z,236.25
2018-04-11T09:13:24.902Z,202.50
2018-04-11T09:14:24.825Z,185.63
2018-04-11T09:15:24.750Z,196.88
2018-04-11T09:16:24.674Z,191.25
2018-04-11T09:17:24.596Z,180.00
2018-04-11T09:18:24.520Z,174.38
2018-04-11T09:19:24.444Z,157.50
2018-04-11T09:20:24.368Z,146.25
2018-04-11T09:21:24.291Z,140.63
2018-04-11T09:22:24.216Z,129.38
2018-04-11T09:23:24.140Z,129.38
2018-04-11T09:24:24.064Z,118.13
2018-04-11T09:25:23.992Z,123.75
2018-04-11T09:26:23.911Z,123.75
2018-04-11T09:27:23.836Z,123.75
2018-04-11T09:28:23.757Z,129.38
2018-04-11T09:29:23.681Z,129.38
2018-04-11T09:30:23.614Z,129.38
2018-04-11T09:31:23.527Z,112.50
2018-04-11T09:32:23.452Z,101.25
2018-04-11T09:33:23.376Z,101.25
2018-04-11T09:34:23.297Z,95.63
2018-04-11T09:35:23.224Z,90.00
2018-04-11T09:36:23.148Z,84.38
2018-04-11T09:37:23.082Z,90.00
2018-04-11T09:38:22.995Z,84.38
2018-04-11T09:39:22.918Z,84.38
2018-04-11T09:40:22.846Z,84.38
2018-04-11T09:41:22.763Z,84.38
2018-04-11T09:42:22.689Z,78.75
2018-04-11T09:43:22.614Z,61.88
2018-04-11T09:44:22.534Z,56.25
2018-04-11T09:45:22.464Z,61.88
2018-04-11T09:46:22.382Z,67.50
2018-04-11T09:47:22.306Z,73.13
2018-04-11T09:48:22.227Z,78.75
2018-04-11T09:49:22.153Z,78.75
2018-04-11T09:50:22.075Z,84.38
2018-04-11T09:51:21.998Z,84.38
2018-04-11T09:52:21.923Z,84.38
2018-04-11T09:53:21.846Z,90.00
2018-04-11T09:54:21.775Z,90.00
2018-04-11T09:55:21.741Z,90.00
2018-04-11T09:56:21.617Z,84.38
2018-04-11T09:57:21.540Z,73.13
2018-04-11T09:58:21.463Z,61.88
2018-04-11T09:59:21.392Z,56.25
2018-04-11T10:00:21.319Z,56.25
2018-04-11T10:01:21.266Z,56.25
2018-04-11T10:02:21.157Z,61.88
2018-04-11T10:03:21.081Z,61.88
2018-04-11T10:04:21.006Z,61.88
2018-04-11T10:05:20.929Z,61.88
2018-04-11T10:06:20.851Z,61.88
2018-04-11T10:07:20.777Z,61.88
2018-04-11T10:08:20.698Z,61.88
2018-04-11T10:09:20.622Z,67.50
2018-04-11T10:10:20.545Z,73.13
2018-04-11T10:11:20.469Z,84.38
2018-04-11T10:12:20.392Z,90.00
2018-04-11T10:13:20.317Z,90.00
2018-04-11T10:14:20.239Z,90.00
2018-04-11T10:15:20.163Z,84.38
2018-04-11T10:16:20.085Z,78.75
2018-04-11T10:17:20.012Z,73.13
2018-04-11T10:18:19.936Z,73.13
2018-04-11T10:19:19.857Z,84.38
2018-04-11T10:20:19.782Z,95.63
2018-04-11T10:21:19.702Z,101.25
2018-04-11T10:22:19.630Z,106.88
2018-04-11T10:23:19.605Z,112.50
2018-04-11T10:24:19.476Z,123.75
2018-04-11T10:25:19.393Z,129.38
2018-04-11T10:26:19.326Z,129.38
2018-04-11T10:27:19.245Z,129.38
2018-04-11T10:28:19.166Z,129.38
2018-04-11T10:29:19.093Z,135.00
2018-04-11T10:30:19.011Z,140.63
2018-04-11T10:31:18.956Z,151.88
2018-04-11T10:32:18.862Z,163.13
2018-04-11T10:33:18.785Z,168.75
2018-04-11T10:34:18.710Z,174.38
2018-04-11T10:35:18.632Z,180.00
2018-04-11T10:36:18.556Z,191.25
2018-04-11T10:37:18.485Z,196.88
2018-04-11T10:38:18.404Z,202.50
2018-04-11T10:39:18.326Z,208.13
2018-04-11T10:40:18.249Z,213.75
2018-04-11T10:41:18.176Z,225.00
2018-04-11T10:42:18.102Z,230.63
2018-04-11T10:43:18.021Z,219.38
2018-04-11T10:44:17.948Z,202.50
2018-04-11T10:45:17.868Z,185.63
2018-04-11T10:46:17.793Z,185.63
2018-04-11T10:47:17.716Z,196.88
2018-04-11T10:48:17.638Z,202.50
2018-04-11T10:49:17.576Z,213.75
2018-04-11T10:50:17.488Z,208.13
2018-04-11T10:51:17.411Z,213.75
2018-04-11T10:52:17.333Z,219.38
2018-04-11T10:53:17.260Z,213.75
2018-04-11T10:54:17.183Z,202.50
2018-04-11T10:55:17.105Z,202.50
2018-04-11T10:56:17.029Z,208.13
2018-04-11T10:57:16.952Z,202.50
2018-04-11T10:58:16.882Z,191.25
2018-04-11T10:59:16.801Z,180.00
2018-04-11T11:00:16.724Z,168.75
2018-04-11T11:01:16.647Z,157.50
2018-04-11T11:02:16.573Z,146.25
2018-04-11T11:03:16.498Z,146.25
2018-04-11T11:04:16.420Z,146.25
2018-04-11T11:05:16.347Z,140.63
2018-04-11T11:06:16.270Z,146.25
2018-04-11T11:07:16.200Z,146.25
2018-04-11T11:08:16.116Z,146.25
2018-04-11T11:09:16.040Z,146.25
2018-04-11T11:10:15.963Z,146.25
2018-04-11T11:11:15.888Z,163.13
2018-04-11T11:12:15.811Z,174.38
2018-04-11T11:13:15.736Z,185.63
2018-04-11T11:14:15.659Z,180.00
2018-04-11T11:15:15.584Z,168.75
2018-04-11T11:16:15.507Z,151.88
2018-04-11T11:17:15.445Z,129.38
2018-04-11T11:18:15.358Z,112.50
2018-04-11T11:19:15.284Z,101.25
2018-04-11T11:20:15.210Z,95.63
2018-04-11T11:21:15.128Z,90.00
2018-04-11T11:22:15.052Z,90.00
2018-04-11T11:23:14.977Z,90.00
2018-04-11T11:24:14.903Z,95.63
2018-04-11T11:25:14.824Z,95.63
2018-04-11T11:26:14.749Z,101.25
2018-04-11T11:27:14.673Z,112.50
2018-04-11T11:28:14.610Z,118.13
2018-04-11T11:29:14.523Z,129.38
2018-04-11T11:30:14.446Z,146.25
2018-04-11T11:31:14.367Z,146.25
2018-04-11T11:32:14.316Z,151.88
2018-04-11T11:33:14.216Z,151.88
2018-04-11T11:34:14.139Z,129.38
2018-04-11T11:35:14.063Z,118.13
2018-04-11T11:36:13.990Z,106.88
2018-04-11T11:37:13.913Z,106.88
2018-04-11T11:38:13.839Z,106.88
2018-04-11T11:39:13.761Z,123.75
2018-04-11T11:40:13.683Z,140.63
2018-04-11T11:41:13.609Z,151.88
2018-04-11T11:42:13.534Z,163.13
2018-04-11T11:43:13.467Z,174.38
2018-04-11T11:44:13.407Z,185.63
2018-04-11T11:45:13.304Z,191.25
2018-04-11T11:46:13.245Z,202.50
2018-04-11T11:47:13.151Z,219.38
2018-04-11T11:48:13.078Z,230.63
2018-04-11T11:49:13.017Z,225.00
2018-04-11T11:50:12.923Z,219.38
2018-04-11T11:51:12.847Z,225.00
2018-04-11T11:52:12.769Z,236.25
2018-04-11T11:53:12.699Z,247.50
2018-04-11T11:54:12.620Z,264.38
2018-04-11T11:55:12.550Z,281.25
2018-04-11T11:56:12.490Z,292.50
2018-04-11T11:57:12.393Z,309.38
2018-04-11T11:58:12.317Z,326.25
2018-04-11T11:59:12.240Z,343.13
2018-04-11T12:00:12.163Z,371.25
2018-04-11T12:01:12.088Z,405.00
2018-04-11T12:02:12.099Z,433.13
2018-04-11T12:03:11.942Z,450.00
2018-04-11T12:04:11.861Z,461.25
2018-04-11T12:05:11.786Z,461.25
2018-04-11T12:06:11.709Z,472.50
2018-04-11T12:07:11.634Z,495.00
2018-04-11T12:08:11.559Z,523.13
2018-04-11T12:09:11.517Z,540.00
2018-04-11T12:10:11.436Z,540.00
2018-04-11T12:11:11.336Z,540.00
2018-04-11T12:12:11.258Z,540.00
2018-04-11T12:13:11.179Z,528.75
2018-04-11T12:14:11.108Z,500.63
2018-04-11T12:15:11.034Z,433.13
2018-04-11T12:16:10.956Z,365.63
2018-04-11T12:17:10.882Z,331.88
2018-04-11T12:18:10.835Z,320.63
2018-04-11T12:19:10.733Z,320.63
2018-04-11T12:20:10.680Z,320.63
2018-04-11T12:21:10.580Z,320.63
2018-04-11T12:22:10.507Z,309.38
2018-04-11T12:23:10.434Z,298.13
2018-04-11T12:24:10.358Z,270.00
2018-04-11T12:25:10.334Z,253.13
2018-04-11T12:26:10.210Z,236.25
2018-04-11T12:27:10.133Z,225.00
2018-04-11T12:28:10.058Z,219.38
2018-04-11T12:29:09.986Z,213.75
2018-04-11T12:30:09.909Z,202.50
2018-04-11T12:31:09.855Z,196.88
2018-04-11T12:32:09.759Z,191.25
2018-04-11T12:33:09.683Z,185.63
2018-04-11T12:34:09.608Z,180.00
2018-04-11T12:35:09.552Z,180.00
2018-04-11T12:36:09.470Z,185.63
2018-04-11T12:37:09.383Z,185.63
2018-04-11T12:38:09.309Z,185.63
2018-04-11T12:39:09.234Z,185.63
2018-04-11T12:40:09.160Z,180.00
2018-04-11T12:41:09.085Z,185.63
2018-04-11T12:42:09.010Z,202.50
2018-04-11T12:43:08.939Z,219.38
2018-04-11T12:44:08.862Z,236.25
2018-04-11T12:45:08.786Z,247.50
2018-04-11T12:46:08.722Z,264.38
2018-04-11T12:47:08.635Z,275.63
2018-04-11T12:48:08.562Z,275.63
2018-04-11T12:49:08.485Z,286.88
2018-04-11T12:50:08.412Z,292.50
2018-04-11T12:51:08.336Z,292.50
2018-04-11T12:52:08.257Z,286.88
2018-04-11T12:53:08.191Z,275.63
2018-04-11T12:54:08.109Z,270.00
2018-04-11T12:55:08.035Z,270.00
2018-04-11T12:56:07.961Z,275.63